Дата Пункты Температура Давл., мм. Влажн., % Ветер Погодные явления
Воздуха Воды Направл. Скорость
16.06.19 06:00 Одесса 32.0 25.0 755 29 Пд 1 18 ГОДИН
16.06.19 03:00 Одесса 32.0 25.0 756 28 Пд-С 1 15 ГОДИН
16.06.19 12:00 Одесса 30.0 24.0 756 54 Пд-С 2 12 ГОДИН
16.06.19 09:00 Одесса 29.0 24.0 756 57 Пн 0 09 ГОДИН
16.06.19 06:00 Одесса 23.0 25.0 756 75 Пн-З 1 06 ГОДИН
16.06.19 03:00 Одесса 23.0 25.0 756 80 Пн 0 03 ГОДИНИ
15.06.19 09:00 Одесса 27.0 25.0 756 55 Пн 0 21 ГОДИНУ
15.06.19 06:00 Одесса 29.0 25.0 756 45 Пд 2 18 ГОДИН
15.06.19 03:00 Одесса 29.0 25.0 757 50 Пд 2 15 ГОДИН
15.06.19 12:00 Одесса 28.0 25.0 758 53 Пд-С 2 12 ГОДИН
15.06.19 09:00 Одесса 29.0 25.0 758 58 Пн 1 09 ГОДИН
15.06.19 06:00 Одесса 22.0 25.0 758 91 Пн-З 1 06 ГОДИН
15.06.19 03:00 Одесса 23.0 25.0 759 76 Пн 0 03 ГОДИНИ
14.06.19 09:00 Одесса 27.0 25.0 758 58 Пд-С 1 21 ГОДИНУ
14.06.19 06:00 Одесса 28.0 24.0 758 55 Пн 0 18 ГОДИН
14.06.19 03:00 Одесса 29.0 24.0 759 54 Пд-С 3 15 ГОДИН
14.06.19 12:00 Одесса 27.0 23.0 759 56 С 2 12 ГОДИН
14.06.19 09:00 Одесса 24.0 23.0 759 64 Пн-С 3 09 ГОДИН
14.06.19 06:00 Одесса 21.0 23.0 758 73 Пн 3 06 ГОДИН
14.06.19 03:00 Одесса 22.0 23.0 758 66 Пн 3 03 ГОДИНИ
Количество строк
1 2 3 4 5 6 7 8 9 10
Page 1 of 500